Flight Track Log - Related Links

Times and Time Zones

All times are in EST time to prevent confusion due to time zone crossing. See the CPT1940 flight status page for this flight to view local times or setup timezone preferences in your user account.


Time Position Orientation Groundspeed Altitude Reporting Facility
EST Latitude Longitude Course Direction KTS MPH feet Rate Location/Type
Wed 01:54:37 PM 44.5667 -109.0031 10° North 111 128 7,700  Level Salt Lake Center
Wed 01:55:00 PM 44.3391 -108.7208 132° Southeast  Level FlightAware Approximate
Wed 01:55:39 PM 44.5939 -108.9964 10° North 106 122 9,200  Level Salt Lake Center
Wed 01:56:00 PM 44.3084 -108.6727 132° Southeast  Level FlightAware Approximate
Wed 01:56:41 PM 44.5886 -108.9553 100° East 140 161 10,400  Level Salt Lake Center
Wed 01:57:00 PM 44.2780 -108.6244 130° Southeast  Level FlightAware Approximate
Wed 01:57:43 PM 44.5581 -108.9133 136° Southeast 145 167 11,300  Level Salt Lake Center
Wed 01:58:00 PM 44.2484 -108.5751 130° Southeast  Level FlightAware Approximate
Wed 01:58:45 PM 44.5297 -108.8636 129° Southeast 144 166 12,400  Level Salt Lake Center
Wed 01:59:47 PM 44.4997 -108.8208 135° Southeast 147 169 13,000 290 Climbing Salt Lake Center
Wed 02:00:49 PM 44.4658 -108.7731 135° Southeast 157 181 13,000  Level Salt Lake Center
Wed 02:01:52 PM 44.4314 -108.7200 132° Southeast 169 194 13,000  Level Salt Lake Center
Wed 02:02:54 PM 44.3958 -108.6667 133° Southeast 178 205 13,000  Level Salt Lake Center
Wed 02:03:56 PM 44.3544 -108.6006 131° Southeast 185 213 13,000  Level Salt Lake Center
Wed 02:04:58 PM 44.3186 -108.5467 133° Southeast 188 216 13,000  Level Salt Lake Center
Wed 02:06:00 PM 44.2853 -108.4942 132° Southeast 186 214 13,000  Level Salt Lake Center
Wed 02:07:02 PM 44.2525 -108.4444 133° Southeast 182 209 13,000  Level Salt Lake Center
Wed 02:08:04 PM 44.2214 -108.3978 133° Southeast 175 201 13,000  Level Salt Lake Center
Wed 02:09:06 PM 44.1892 -108.3489 133° Southeast 172 198 13,000  Level Salt Lake Center
Wed 02:10:08 PM 44.1489 -108.2889 133° Southeast 174 200 13,000 48 Level Salt Lake Center
Wed 02:11:10 PM 44.1156 -108.2372 132° Southeast 177 204 13,100 48 Climbing Salt Lake Center
Wed 02:12:12 PM 44.0828 -108.1892 134° Southeast 176 203 13,100  Level Salt Lake Center
Wed 02:13:14 PM 44.0508 -108.1411 133° Southeast 173 199 13,100  Level Salt Lake Center
Wed 02:14:16 PM 44.0200 -108.0942 132° Southeast 170 196 13,100 -48 Level Salt Lake Center
Wed 02:15:18 PM 43.9889 -108.0486 133° Southeast 167 192 13,000 -48 Descending Salt Lake Center
Wed 02:16:20 PM 43.9517 -107.9933 133° Southeast 165 190 13,000  Level Salt Lake Center
Wed 02:17:22 PM 43.9203 -107.9475 134° Southeast 165 190 13,000 48 Level Salt Lake Center
Wed 02:18:24 PM 43.8903 -107.9017 132° Southeast 163 188 13,100 48 Climbing Salt Lake Center
Wed 02:19:26 PM 43.8594 -107.8547 132° Southeast 164 189 13,100  Level Salt Lake Center
Wed 02:20:28 PM 43.8286 -107.8053 131° Southeast 166 191 13,100  Level Salt Lake Center
Wed 02:21:30 PM 43.7969 -107.7594 134° Southeast 167 192 13,100  Level Salt Lake Center
Wed 02:22:32 PM 43.7597 -107.7069 134° Southeast 164 189 13,100 -49 Level Salt Lake Center
Wed 02:23:33 PM 43.7289 -107.6614 133° Southeast 163 188 13,000 -49 Descending Salt Lake Center
Wed 02:24:35 PM 43.6961 -107.6150 134° Southeast 165 190 13,000  Level Salt Lake Center
Wed 02:25:37 PM 43.6650 -107.5692 133° Southeast 165 190 13,000  Level Salt Lake Center
Wed 02:26:39 PM 43.6347 -107.5222 132° Southeast 164 189 13,000  Level Salt Lake Center
Wed 02:27:41 PM 43.6022 -107.4739 133° Southeast 167 192 13,000  Level Salt Lake Center
Wed 02:28:43 PM 43.5614 -107.4147 134° Southeast 172 198 13,000  Level Salt Lake Center
Wed 02:29:45 PM 43.5278 -107.3675 134° Southeast 175 201 13,000  Level Salt Lake Center
Wed 02:30:47 PM 43.4953 -107.3183 132° Southeast 174 200 13,000 48 Level Salt Lake Center
Wed 02:31:49 PM 43.4608 -107.2681 133° Southeast 178 205 13,100  Climbing Salt Lake Center
Wed 02:33:20 PM 43.4075 -107.1872 132° Southeast 179 206 13,000 -98 Descending Denver Center
Wed 02:33:52 PM 43.3928 -107.1714 142° Southeast 177 204 12,900  Descending Salt Lake Center
Wed 02:34:54 PM 43.3558 -107.1172 133° Southeast 164 189 13,000 48 Climbing Salt Lake Center
Wed 02:35:56 PM 43.3236 -107.0686 132° Southeast 170 196 13,000 -387 Level Salt Lake Center
Wed 02:36:58 PM 43.2931 -107.0200 131° Southeast 169 194 12,200 -484 Descending Salt Lake Center
Wed 02:38:00 PM 43.2600 -106.9769 137° Southeast 165 190 12,000 -97 Descending Salt Lake Center
Wed 02:39:02 PM 43.2275 -106.9281 132° Southeast 172 198 12,000 -439 Level Salt Lake Center
Wed 02:40:03 PM 43.1928 -106.8744 132° Southeast 169 194 11,100 -829 Descending Salt Lake Center
Wed 02:41:05 PM 43.1625 -106.8350 136° Southeast 160 184 10,300 -484 Descending Salt Lake Center
Wed 02:42:07 PM 43.1303 -106.7869 133° Southeast 155 178 10,100 -261 Descending Salt Lake Center
Wed 02:42:37 PM 43.1181 -106.7639 126° Southeast 155 178 9,900 -717 Descending Denver Center
Wed 02:43:39 PM 43.0925 -106.7231 131° Southeast 152 175 9,000 -435 Descending Denver Center
Wed 02:44:41 PM 43.0892 -106.6536 94° East 163 188 9,000  Level Denver Center
Wed 02:45:43 PM 43.0917 -106.5908 87° East 171 197 9,000  Level Denver Center
Wed 02:46:45 PM 43.0911 -106.5189 91° East 171 197 9,000  Level Denver Center
Wed 02:47:59 PM 43.0889 -106.4539 93° East 175 201 9,000  Level Denver Center
Wed 02:49:01 PM 43.0886 -106.3753 90° East 167 192 9,000  Level Denver Center
Wed 02:50:03 PM 43.0900 -106.3150 88° East 165 190 9,000  Level Denver Center
Wed 02:51:05 PM 43.1017 -106.2497 76° East 168 193 9,000  Level Denver Center
Wed 02:52:06 PM 43.1342 -106.2186 35° Northeast 162 186 9,000  Level Denver Center
Wed 02:53:08 PM 43.1486 -106.2289 333° Northwest 118 136 9,000  Level Denver Center
Wed 02:54:10 PM 43.1239 -106.2364 192° South 100 115 9,000  Level Denver Center
Wed 02:55:12 PM 43.1067 -106.2633 229° Southwest 88 101 9,000  Level Denver Center
Wed 02:56:14 PM 43.0886 -106.2822 217° Southwest 84 97 9,000  Level Denver Center
Wed 02:57:16 PM 43.1158 -106.2817 North 114 131 9,000  Level Denver Center
Wed 02:58:17 PM 43.1553 -106.2472 32° Northeast 142 163 9,000  Level Denver Center
Wed 02:59:19 PM 43.1858 -106.2083 43° Northeast 157 181 9,000  Level Denver Center
Wed 03:00:21 PM 43.1628 -106.1819 140° Southeast 134 154 9,000  Level Denver Center
Wed 03:01:23 PM 43.1478 -106.2069 231° Southwest 102 117 9,000  Level Denver Center
Wed 03:02:25 PM 43.1333 -106.2392 238° Southwest 93 107 9,000  Level Denver Center
Wed 03:03:27 PM 43.1147 -106.2578 216° Southwest 88 101 9,000  Level Denver Center
Wed 03:04:29 PM 43.0914 -106.2789 213° Southwest 88 101 9,000  Level Denver Center
Wed 03:05:31 PM 43.1044 -106.2911 326° Northwest 108 124 9,000  Level Denver Center
Wed 03:06:32 PM 43.1456 -106.2611 28° Northeast 141 162 9,000  Level Denver Center
Wed 03:07:34 PM 43.1811 -106.2344 29° Northeast 147 169 9,000  Level Denver Center
Wed 03:08:36 PM 43.1825 -106.1844 88° East 163 188 9,000  Level Denver Center
Wed 03:09:38 PM 43.1589 -106.2000 206° Southwest 110 127 9,000  Level Denver Center
Wed 03:10:40 PM 43.1419 -106.2236 225° Southwest 96 110 9,000  Level Denver Center
Wed 03:11:42 PM 43.1183 -106.2475 216° Southwest 93 107 9,000  Level Denver Center
Wed 03:12:44 PM 43.1006 -106.2683 221° Southwest 91 105 9,000  Level Denver Center
Wed 03:13:46 PM 43.0889 -106.2931 237° Southwest 83 96 9,000  Level Denver Center
Wed 03:14:48 PM 43.1244 -106.2803 15° North 117 135 9,000  Level Denver Center
Wed 03:15:50 PM 43.1647 -106.2597 20° North 132 152 9,000  Level Denver Center
Wed 03:16:52 PM 43.1878 -106.2194 52° Northeast 157 181 9,000  Level Denver Center
Wed 03:17:54 PM 43.1594 -106.2097 166° South 124 143 9,000  Level Denver Center
Wed 03:18:56 PM 43.1403 -106.2278 215° Southwest 99 114 9,000  Level Denver Center
Wed 03:19:58 PM 43.1200 -106.2458 213° Southwest 93 107 9,000  Level Denver Center
Wed 03:21:00 PM 43.0983 -106.2672 216° Southwest 90 104 9,000  Level Denver Center
Wed 03:22:01 PM 43.0900 -106.2925 246° West 93 107 9,000  Level Denver Center
Wed 03:23:03 PM 43.1283 -106.2781 15° North 119 137 9,000 48 Level Denver Center
Wed 03:24:05 PM 43.1619 -106.2594 22° Northeast 131 151 9,100  Climbing Denver Center
Wed 03:25:07 PM 43.1728 -106.2036 75° East 166 191 9,000 -97 Descending Denver Center
Wed 03:26:09 PM 43.1422 -106.2106 189° South 136 157 8,900  Descending Denver Center
Wed 03:27:11 PM 43.1256 -106.2394 232° Southwest 102 117 9,000 97 Climbing Denver Center
Wed 03:28:13 PM 43.1114 -106.2597 226° Southwest 87 100 9,100  Climbing Denver Center
Wed 03:29:15 PM 43.0947 -106.2869 230° Southwest 83 96 9,000 -48 Descending Denver Center
Wed 03:30:17 PM 43.0669 -106.2833 175° South 129 148 9,000 48 Level Denver Center
Wed 03:31:19 PM 43.0461 -106.2311 119° Southeast 154 177 9,100 97 Climbing Denver Center

Login

Don't have an account? Register now (free) for customized features, flight alerts, and more!